Time;durP1;ratioP1;P1;durP2;ratioP2;P2;SDS_P1;SDS_P2;PMS_P1;PMS_P2;Temp;Humidity;BMP_temperature;BMP_pressure;BME280_temperature;BME280_humidity;BME280_pressure;Samples;Min_cycle;Max_cycle;Signal;HPM_P1;HPM_P2
2023/04/29 00:01:25;;;;;;;33.10;23.92;;;11.10;99.90;;;;;;5114797;28;20177;-58
2023/04/29 00:03:51;;;;;;;37.55;25.35;;;11.00;99.90;;;;;;5114771;28;20247;-58
2023/04/29 00:06:17;;;;;;;36.10;25.80;;;11.00;99.90;;;;;;5114649;28;20209;-59
2023/04/29 00:08:43;;;;;;;39.90;27.75;;;11.10;99.90;;;;;;5114595;28;20176;-58
2023/04/29 00:11:09;;;;;;;39.83;26.45;;;11.10;99.90;;;;;;5114548;28;20539;-59
2023/04/29 00:13:35;;;;;;;41.40;27.95;;;11.00;99.90;;;;;;5114679;28;20512;-59
2023/04/29 00:16:01;;;;;;;40.35;26.30;;;11.00;99.90;;;;;;5114406;28;20184;-58
2023/04/29 00:18:26;;;;;;;36.60;25.90;;;10.90;99.90;;;;;;5096370;28;20679;-59
2023/04/29 00:20:52;;;;;;;37.67;27.10;;;11.00;99.90;;;;;;5114472;28;20252;-58
2023/04/29 00:23:17;;;;;;;38.80;27.77;;;11.10;99.90;;;;;;5114309;28;20266;-59
2023/04/29 00:25:43;;;;;;;35.42;25.02;;;11.00;99.90;;;;;;5114196;28;20220;-59
2023/04/29 00:28:09;;;;;;;38.25;25.98;;;11.00;99.90;;;;;;5114231;28;20631;-58
2023/04/29 00:30:35;;;;;;;36.10;24.98;;;11.10;99.90;;;;;;5114110;28;20184;-59
2023/04/29 00:33:01;;;;;;;39.15;26.02;;;11.00;99.90;;;;;;5114230;28;20578;-59
2023/04/29 00:35:27;;;;;;;37.20;26.67;;;11.10;99.90;;;;;;5114176;28;20173;-59
2023/04/29 00:37:53;;;;;;;37.03;26.60;;;11.10;99.90;;;;;;5114116;28;20184;-59
2023/04/29 00:40:19;;;;;;;37.70;26.45;;;11.10;99.90;;;;;;5113916;28;20162;-64
2023/04/29 00:42:44;;;;;;;37.63;25.92;;;10.90;99.90;;;;;;5113883;28;20177;-60
2023/04/29 00:45:11;;;;;;;36.72;25.83;;;11.00;99.90;;;;;;5114068;28;20166;-60
2023/04/29 00:47:37;;;;;;;37.92;26.92;;;10.90;99.90;;;;;;5114047;28;20176;-58
2023/04/29 00:50:05;;;;;;;39.28;26.58;;;10.80;99.90;;;;;;5113745;28;20225;-58
2023/04/29 00:52:31;;;;;;;33.72;25.25;;;10.80;99.90;;;;;;5113713;28;20173;-60
2023/04/29 00:54:58;;;;;;;39.78;27.17;;;10.70;99.90;;;;;;5113695;28;20195;-58
2023/04/29 00:57:27;;;;;;;31.85;24.88;;;10.70;99.90;;;;;;5113903;28;20251;-59
2023/04/29 00:59:54;;;;;;;31.35;24.35;;;10.60;99.90;;;;;;5113788;28;20180;-58
2023/04/29 01:02:20;;;;;;;28.83;23.35;;;10.60;99.90;;;;;;5113800;28;20217;-58
2023/04/29 01:04:46;;;;;;;33.55;24.58;;;10.60;99.90;;;;;;5113765;28;20199;-59
2023/04/29 01:07:37;;;;;;;31.58;23.98;;;10.60;99.90;;;;;;5113623;28;20216;-58
2023/04/29 01:10:15;;;;;;;29.00;21.90;;;10.60;99.90;;;;;;5112486;28;20216;-58
2023/04/29 01:12:45;;;;;;;24.65;19.30;;;10.60;99.90;;;;;;5113669;28;20238;-58
2023/04/29 01:15:22;;;;;;;25.50;20.30;;;10.70;99.90;;;;;;5113642;28;20183;-58
2023/04/29 01:17:57;;;;;;;24.10;19.52;;;10.70;99.90;;;;;;5113482;28;20165;-59
2023/04/29 01:20:24;;;;;;;21.75;18.48;;;10.70;99.90;;;;;;5113747;28;20527;-59
2023/04/29 01:22:50;;;;;;;23.65;18.08;;;10.70;99.90;;;;;;5113409;28;20561;-58
2023/04/29 01:25:16;;;;;;;21.13;17.42;;;10.80;99.90;;;;;;5113447;28;20216;-58
2023/04/29 01:28:06;;;;;;;21.25;18.10;;;10.90;99.90;;;;;;5113380;28;20663;-59
2023/04/29 01:30:47;;;;;;;20.55;16.60;;;10.90;99.90;;;;;;5113421;28;20177;-59
2023/04/29 01:33:21;;;;;;;20.77;18.23;;;10.80;99.90;;;;;;5113422;28;20166;-58
2023/04/29 01:36:40;;;;;;;21.27;18.58;;;10.60;99.90;;;;;;5113791;28;20177;-58
2023/04/29 01:39:30;;;;;;;19.15;17.00;;;10.50;99.90;;;;;;5010897;28;20188;-58
2023/04/29 01:42:21;;;;;;;16.23;14.52;;;10.30;99.90;;;;;;5113288;28;20311;-59
2023/04/29 01:44:50;;;;;;;16.60;14.85;;;10.30;99.90;;;;;;5113303;28;20208;-58
2023/04/29 01:47:17;;;;;;;17.90;16.00;;;10.30;99.90;;;;;;5112877;28;20221;-59
2023/04/29 01:49:45;;;;;;;18.20;16.05;;;10.30;99.90;;;;;;5113326;28;20288;-59
2023/04/29 01:52:11;;;;;;;20.92;16.80;;;10.50;99.90;;;;;;5095645;28;20173;-59
2023/04/29 01:54:37;;;;;;;19.40;17.27;;;10.50;99.90;;;;;;5113307;28;20568;-58
2023/04/29 01:57:03;;;;;;;20.38;17.05;;;10.50;99.90;;;;;;5113217;28;20173;-59
2023/04/29 01:59:29;;;;;;;20.35;18.23;;;10.50;99.90;;;;;;5113164;28;20520;-59
2023/04/29 02:01:58;;;;;;;21.02;18.08;;;10.50;99.90;;;;;;5112986;28;20180;-59
2023/04/29 02:04:26;;;;;;;21.15;17.65;;;10.40;99.90;;;;;;5113032;28;20174;-59
2023/04/29 02:06:52;;;;;;;20.92;17.83;;;10.40;99.90;;;;;;5113074;28;20216;-58
2023/04/29 02:09:17;;;;;;;22.00;19.48;;;10.40;99.90;;;;;;5113171;28;20681;-59
2023/04/29 02:11:43;;;;;;;21.20;17.90;;;10.40;99.90;;;;;;5113042;28;20170;-59
2023/04/29 02:14:09;;;;;;;19.15;17.00;;;10.40;99.90;;;;;;5112957;28;20178;-59
2023/04/29 02:16:35;;;;;;;19.85;16.70;;;10.30;99.90;;;;;;5112956;28;20242;-59
2023/04/29 02:19:00;;;;;;;19.50;16.80;;;10.40;99.90;;;;;;5112938;28;20185;-59
2023/04/29 02:21:26;;;;;;;18.27;16.20;;;10.40;99.90;;;;;;5115879;28;20177;-58
2023/04/29 02:23:53;;;;;;;19.75;16.20;;;10.40;99.90;;;;;;5116803;28;20218;-59
2023/04/29 02:26:19;;;;;;;20.17;17.17;;;10.40;99.90;;;;;;5116416;28;20574;-59
2023/04/29 02:28:45;;;;;;;20.50;18.25;;;10.40;99.90;;;;;;5116518;28;20181;-59
2023/04/29 02:31:11;;;;;;;20.90;18.58;;;10.40;99.90;;;;;;5116396;28;20177;-58
2023/04/29 02:33:37;;;;;;;21.25;18.85;;;10.40;99.90;;;;;;5116597;28;20177;-59
2023/04/29 02:36:03;;;;;;;23.85;18.88;;;10.40;99.90;;;;;;5116599;28;20652;-58
2023/04/29 02:38:29;;;;;;;23.42;18.40;;;10.40;99.90;;;;;;5116500;28;20169;-58
2023/04/29 02:40:54;;;;;;;21.92;19.33;;;10.30;99.90;;;;;;5116362;28;20172;-59
2023/04/29 02:43:20;;;;;;;23.25;18.73;;;10.40;99.90;;;;;;5116219;28;20244;-59
2023/04/29 02:45:46;;;;;;;24.20;19.55;;;10.40;99.90;;;;;;5116115;28;20250;-59
2023/04/29 02:48:11;;;;;;;24.52;19.20;;;10.30;99.90;;;;;;5115985;28;20181;-58
2023/04/29 02:50:37;;;;;;;22.92;18.30;;;10.40;99.90;;;;;;5116072;28;20169;-58
2023/04/29 02:53:03;;;;;;;23.35;19.08;;;10.40;99.90;;;;;;5116186;28;20182;-58
2023/04/29 02:55:28;;;;;;;22.63;19.30;;;10.40;99.90;;;;;;5116023;28;20177;-58
2023/04/29 02:57:54;;;;;;;24.00;19.33;;;10.50;99.90;;;;;;5115925;28;20205;-59
2023/04/29 03:00:20;;;;;;;20.15;17.83;;;10.50;99.90;;;;;;5115891;28;20177;-59
2023/04/29 03:02:46;;;;;;;27.35;19.98;;;10.40;99.90;;;;;;5115999;28;20216;-59
2023/04/29 03:05:12;;;;;;;25.05;19.63;;;10.50;99.90;;;;;;5115746;28;20216;-58
2023/04/29 03:07:37;;;;;;;22.30;18.70;;;10.40;99.90;;;;;;5115875;28;20235;-59
2023/04/29 03:10:03;;;;;;;23.15;19.35;;;10.40;99.90;;;;;;5115891;28;20173;-59
2023/04/29 03:12:29;;;;;;;23.13;19.77;;;10.40;99.90;;;;;;5115621;28;20173;-59
2023/04/29 03:14:55;;;;;;;24.92;19.35;;;10.30;99.90;;;;;;5115851;28;20214;-59
2023/04/29 03:17:21;;;;;;;24.55;20.55;;;10.30;99.90;;;;;;5115808;28;20173;-58
2023/04/29 03:19:47;;;;;;;25.00;20.27;;;10.30;99.90;;;;;;5115749;28;20169;-58
2023/04/29 03:22:12;;;;;;;24.80;19.67;;;10.20;99.90;;;;;;5115545;28;20169;-59
2023/04/29 03:24:38;;;;;;;21.83;19.50;;;10.30;99.90;;;;;;5115506;28;20177;-59
2023/04/29 03:27:04;;;;;;;22.08;19.77;;;10.20;99.90;;;;;;5097149;28;20671;-58
2023/04/29 03:29:30;;;;;;;20.63;17.67;;;10.20;99.90;;;;;;5115302;28;20635;-59
2023/04/29 03:31:57;;;;;;;20.13;17.17;;;10.20;99.90;;;;;;5114606;28;20177;-59
2023/04/29 03:34:23;;;;;;;22.15;17.60;;;10.20;99.90;;;;;;5115447;28;20173;-58
2023/04/29 03:36:50;;;;;;;21.85;17.63;;;10.20;99.90;;;;;;5115354;28;20219;-58
2023/04/29 03:39:16;;;;;;;19.70;16.77;;;10.20;99.90;;;;;;5097125;28;20543;-58
2023/04/29 03:41:42;;;;;;;20.92;15.65;;;10.20;99.90;;;;;;5115124;28;20632;-59
2023/04/29 03:44:08;;;;;;;19.13;16.48;;;10.10;99.90;;;;;;5115086;28;20174;-59
2023/04/29 03:46:34;;;;;;;20.83;16.30;;;10.10;99.90;;;;;;5115195;28;20205;-58
2023/04/29 03:48:59;;;;;;;20.65;16.83;;;10.10;99.90;;;;;;5115274;28;20241;-58
2023/04/29 03:51:26;;;;;;;20.50;18.15;;;10.00;99.90;;;;;;5115067;28;20748;-59
2023/04/29 03:53:55;;;;;;;22.98;18.30;;;10.00;99.90;;;;;;5114908;28;20184;-58
2023/04/29 03:56:21;;;;;;;21.70;19.40;;;10.00;99.90;;;;;;5114839;28;20218;-59
2023/04/29 03:58:47;;;;;;;21.17;18.77;;;10.00;99.90;;;;;;5114682;28;20181;-59
2023/04/29 04:01:14;;;;;;;21.65;18.13;;;9.90;99.90;;;;;;5114659;28;20695;-58
2023/04/29 04:03:39;;;;;;;22.25;18.75;;;9.90;99.90;;;;;;5114872;28;20158;-59
2023/04/29 04:06:06;;;;;;;19.60;17.67;;;10.00;99.90;;;;;;5114604;28;20205;-58
2023/04/29 04:08:31;;;;;;;18.70;16.58;;;10.00;99.90;;;;;;5114963;28;20173;-58
2023/04/29 04:11:01;;;;;;;20.58;17.27;;;10.00;99.90;;;;;;5114827;28;20180;-59
2023/04/29 04:13:28;;;;;;;18.92;16.92;;;9.90;99.90;;;;;;5114840;28;20157;-58
2023/04/29 04:15:53;;;;;;;19.40;16.75;;;9.90;99.90;;;;;;5114650;28;20203;-59
2023/04/29 04:18:19;;;;;;;19.33;16.10;;;10.00;99.90;;;;;;5114667;28;20568;-59
2023/04/29 04:20:46;;;;;;;18.85;15.65;;;9.90;99.90;;;;;;5114298;28;20254;-60
2023/04/29 04:23:11;;;;;;;16.08;14.27;;;10.00;99.90;;;;;;5114370;28;20256;-58
2023/04/29 04:25:37;;;;;;;18.33;14.55;;;10.10;99.90;;;;;;5114175;28;20317;-58
2023/04/29 04:28:03;;;;;;;16.20;14.00;;;10.10;99.90;;;;;;5114758;28;20596;-58
2023/04/29 04:30:28;;;;;;;15.68;13.20;;;10.10;99.90;;;;;;5114399;28;20666;-58
2023/04/29 04:32:54;;;;;;;15.45;13.85;;;10.00;99.90;;;;;;5114327;28;20202;-59
2023/04/29 04:35:19;;;;;;;15.85;13.32;;;10.00;99.90;;;;;;5114031;28;20692;-59
2023/04/29 04:37:45;;;;;;;14.07;12.55;;;10.00;99.90;;;;;;5096054;28;20212;-59
2023/04/29 04:40:12;;;;;;;16.90;13.73;;;9.90;99.90;;;;;;5113892;28;20217;-58
2023/04/29 04:42:38;;;;;;;14.70;13.20;;;9.90;99.90;;;;;;5114078;28;20170;-59
2023/04/29 04:45:05;;;;;;;15.93;13.18;;;9.90;99.90;;;;;;5114089;28;20259;-58
2023/04/29 04:47:30;;;;;;;16.05;13.38;;;9.90;99.90;;;;;;5113972;28;20170;-59
2023/04/29 04:49:56;;;;;;;15.65;13.65;;;9.90;99.90;;;;;;5113836;28;20591;-58
2023/04/29 04:52:22;;;;;;;14.52;13.13;;;9.90;99.90;;;;;;5113828;28;20177;-58
2023/04/29 04:54:47;;;;;;;15.70;12.60;;;9.80;99.90;;;;;;5113792;28;20170;-58
2023/04/29 04:57:13;;;;;;;14.45;12.55;;;9.70;99.90;;;;;;5114012;28;20184;-58
2023/04/29 04:59:39;;;;;;;13.95;12.55;;;9.70;99.90;;;;;;5095753;28;20181;-59
2023/04/29 05:02:05;;;;;;;14.50;11.63;;;9.70;99.90;;;;;;5113478;28;20181;-60
2023/04/29 05:04:30;;;;;;;13.88;12.52;;;9.70;99.90;;;;;;5113305;28;20173;-60
2023/04/29 05:06:56;;;;;;;14.15;12.65;;;9.70;99.90;;;;;;5113098;28;20227;-57
2023/04/29 05:09:22;;;;;;;14.10;12.15;;;9.70;99.90;;;;;;5113017;28;20184;-61
2023/04/29 05:11:47;;;;;;;15.63;14.00;;;9.80;99.90;;;;;;5095234;28;20271;-58
2023/04/29 05:14:13;;;;;;;14.02;12.65;;;9.90;99.90;;;;;;5113129;28;20639;-59
2023/04/29 05:16:39;;;;;;;15.40;12.93;;;9.90;99.90;;;;;;5113218;28;20209;-60
2023/04/29 05:19:04;;;;;;;13.68;12.35;;;9.90;99.90;;;;;;5113185;28;20636;-59
2023/04/29 05:21:30;;;;;;;15.95;13.70;;;9.90;99.90;;;;;;5113062;28;20543;-60
2023/04/29 05:23:56;;;;;;;14.73;12.48;;;9.90;99.90;;;;;;5112055;28;20586;-58
2023/04/29 05:26:22;;;;;;;14.90;13.27;;;10.00;99.90;;;;;;5112764;28;20217;-59
2023/04/29 05:28:48;;;;;;;15.13;13.60;;;10.00;99.90;;;;;;5113199;28;20173;-60
2023/04/29 05:31:13;;;;;;;14.57;13.10;;;10.00;99.90;;;;;;5078341;28;20541;-60
2023/04/29 05:33:39;;;;;;;15.77;14.07;;;9.90;99.90;;;;;;5094349;28;20212;-60
2023/04/29 05:36:06;;;;;;;15.90;14.15;;;9.90;99.90;;;;;;5094900;28;20610;-59
2023/04/29 05:38:31;;;;;;;15.55;13.82;;;9.90;99.90;;;;;;5112730;28;20573;-60
2023/04/29 05:40:57;;;;;;;17.08;15.38;;;10.00;99.90;;;;;;5110629;28;20185;-60
2023/04/29 05:43:23;;;;;;;16.95;15.10;;;10.00;99.90;;;;;;5094041;28;20201;-61
2023/04/29 05:45:49;;;;;;;21.10;16.65;;;9.90;99.90;;;;;;5094759;28;20197;-60
2023/04/29 05:48:15;;;;;;;17.92;16.02;;;10.00;99.90;;;;;;5077698;28;20180;-60
2023/04/29 05:50:41;;;;;;;17.40;15.45;;;10.10;99.90;;;;;;5113073;28;20181;-62
2023/04/29 05:53:07;;;;;;;19.40;16.65;;;10.00;99.90;;;;;;5094380;28;20177;-59
2023/04/29 05:55:33;;;;;;;18.75;15.93;;;10.00;99.90;;;;;;5114046;28;20188;-60
2023/04/29 05:57:58;;;;;;;18.15;16.25;;;10.00;99.90;;;;;;5098264;28;20180;-59
2023/04/29 06:00:24;;;;;;;17.83;15.80;;;10.10;99.90;;;;;;5116633;28;20177;-59
2023/04/29 06:02:51;;;;;;;17.98;15.63;;;10.10;99.90;;;;;;5116449;28;20190;-59
2023/04/29 06:05:16;;;;;;;17.45;15.57;;;10.20;99.90;;;;;;5098119;28;20626;-59
2023/04/29 06:07:43;;;;;;;17.85;15.95;;;10.20;99.90;;;;;;5116360;28;20175;-59
2023/04/29 06:10:09;;;;;;;18.48;15.85;;;10.20;99.90;;;;;;5115851;28;20181;-60
2023/04/29 06:12:35;;;;;;;18.13;15.20;;;10.30;99.90;;;;;;5116354;28;20177;-59
2023/04/29 06:15:01;;;;;;;18.10;15.00;;;10.40;99.90;;;;;;5116101;28;20260;-59
2023/04/29 06:17:28;;;;;;;17.75;15.88;;;10.40;99.90;;;;;;5116326;28;20517;-59
2023/04/29 06:19:55;;;;;;;17.92;16.02;;;10.40;99.90;;;;;;5116146;28;20188;-59
2023/04/29 06:22:21;;;;;;;21.30;17.67;;;10.40;99.90;;;;;;5115749;28;20609;-59
2023/04/29 06:24:48;;;;;;;20.02;16.38;;;10.40;99.90;;;;;;5116032;28;20550;-59
2023/04/29 06:27:14;;;;;;;18.70;15.90;;;10.50;99.90;;;;;;5097739;28;20636;-60
2023/04/29 06:29:41;;;;;;;18.45;15.93;;;10.50;99.90;;;;;;5116186;28;20169;-60
2023/04/29 06:32:07;;;;;;;21.15;17.45;;;10.50;99.90;;;;;;5115987;28;20185;-60
2023/04/29 06:34:33;;;;;;;19.42;17.10;;;10.40;99.90;;;;;;5115893;28;20270;-63
2023/04/29 06:36:58;;;;;;;20.17;17.08;;;10.40;99.90;;;;;;5115827;28;20643;-59
2023/04/29 06:39:24;;;;;;;18.25;16.35;;;10.40;99.90;;;;;;5115863;28;20264;-59
2023/04/29 06:41:51;;;;;;;19.13;16.90;;;10.50;99.90;;;;;;5115978;28;20169;-60
2023/04/29 06:44:18;;;;;;;19.27;17.27;;;10.50;99.90;;;;;;5115948;28;20272;-60
2023/04/29 06:46:43;;;;;;;19.50;17.48;;;10.40;99.90;;;;;;5115834;28;20215;-60
2023/04/29 06:49:09;;;;;;;19.58;17.52;;;10.40;99.90;;;;;;5115941;28;20323;-59
2023/04/29 06:51:36;;;;;;;20.10;16.60;;;10.40;99.90;;;;;;5115734;28;20181;-59
2023/04/29 06:54:02;;;;;;;24.42;18.63;;;10.50;99.90;;;;;;5115560;28;20215;-59
2023/04/29 06:56:28;;;;;;;20.90;16.73;;;10.50;99.90;;;;;;5115875;28;20523;-59
2023/04/29 06:58:54;;;;;;;22.75;19.10;;;10.50;99.90;;;;;;5115623;28;20181;-61
2023/04/29 07:01:20;;;;;;;19.63;17.52;;;10.50;99.90;;;;;;5115546;28;20643;-59
2023/04/29 07:03:45;;;;;;;20.88;18.25;;;10.50;99.90;;;;;;5115408;28;20177;-65
2023/04/29 07:06:11;;;;;;;19.70;17.63;;;10.60;99.90;;;;;;5096323;28;20250;-59
2023/04/29 07:08:37;;;;;;;19.67;16.67;;;10.60;99.90;;;;;;5114672;28;20188;-59
2023/04/29 07:11:03;;;;;;;23.65;17.83;;;10.70;99.90;;;;;;5115433;28;20169;-59
2023/04/29 07:13:29;;;;;;;20.42;18.13;;;10.80;99.90;;;;;;5115347;28;20173;-59
2023/04/29 07:15:55;;;;;;;22.83;17.88;;;10.90;99.90;;;;;;5115389;28;20188;-59
2023/04/29 07:18:20;;;;;;;20.20;17.70;;;10.90;99.90;;;;;;5115140;28;20256;-59
2023/04/29 07:20:46;;;;;;;21.10;17.98;;;10.90;99.90;;;;;;5115120;28;20669;-59
2023/04/29 07:23:13;;;;;;;23.15;17.83;;;11.10;99.90;;;;;;5114915;28;20526;-59
2023/04/29 07:25:39;;;;;;;20.33;16.77;;;11.20;99.90;;;;;;5115103;28;20272;-59
2023/04/29 07:28:05;;;;;;;18.48;16.48;;;11.20;99.90;;;;;;5114988;28;20181;-59
2023/04/29 07:30:31;;;;;;;18.15;16.20;;;11.40;99.90;;;;;;5115200;28;20630;-59
2023/04/29 07:32:56;;;;;;;19.02;16.10;;;11.50;99.90;;;;;;5114899;28;20173;-59
2023/04/29 07:35:22;;;;;;;19.00;16.67;;;11.40;99.90;;;;;;5114883;28;20180;-59
2023/04/29 07:37:48;;;;;;;17.38;15.45;;;11.50;99.90;;;;;;5114821;28;20267;-62
2023/04/29 07:40:14;;;;;;;17.35;15.45;;;11.60;99.90;;;;;;5114948;28;20174;-59
2023/04/29 07:42:39;;;;;;;17.02;14.57;;;11.60;99.90;;;;;;5114638;28;20672;-59
2023/04/29 07:45:06;;;;;;;16.27;14.60;;;11.60;99.90;;;;;;5114687;28;20256;-60
2023/04/29 07:47:31;;;;;;;16.08;14.13;;;11.50;99.90;;;;;;5114559;28;20219;-59
2023/04/29 07:49:57;;;;;;;16.45;14.57;;;11.50;99.90;;;;;;5114728;28;20225;-59
2023/04/29 07:52:22;;;;;;;18.05;15.10;;;11.60;99.90;;;;;;5114682;28;20169;-59
2023/04/29 07:54:48;;;;;;;16.15;14.45;;;11.70;99.90;;;;;;5114494;28;20184;-59
2023/04/29 07:57:14;;;;;;;16.05;14.00;;;11.80;99.90;;;;;;5096323;28;20311;-58
2023/04/29 07:59:40;;;;;;;18.85;14.82;;;11.80;99.90;;;;;;5114350;28;20608;-58
2023/04/29 08:02:05;;;;;;;15.10;13.25;;;11.80;99.90;;;;;;5114165;28;20180;-59
2023/04/29 08:04:31;;;;;;;17.00;14.25;;;11.70;99.90;;;;;;5114099;28;20188;-58
2023/04/29 08:06:57;;;;;;;15.65;14.00;;;11.80;99.90;;;;;;5114033;28;20217;-58
2023/04/29 08:09:22;;;;;;;16.10;13.40;;;11.90;99.90;;;;;;5114197;28;20184;-58
2023/04/29 08:11:48;;;;;;;15.50;13.55;;;11.90;99.90;;;;;;5114200;28;20172;-58
2023/04/29 08:14:14;;;;;;;18.40;13.68;;;11.70;99.90;;;;;;5114098;28;20192;-59
2023/04/29 08:16:39;;;;;;;15.82;12.75;;;11.80;99.90;;;;;;5114029;28;20169;-58
2023/04/29 08:19:05;;;;;;;15.55;12.85;;;11.80;99.90;;;;;;5113542;28;20203;-59
2023/04/29 08:21:31;;;;;;;15.05;13.50;;;11.90;99.90;;;;;;5113768;28;20176;-58
2023/04/29 08:23:57;;;;;;;16.30;13.80;;;12.00;99.90;;;;;;5113944;28;20268;-59
2023/04/29 08:26:22;;;;;;;17.13;14.15;;;12.20;99.90;;;;;;5113877;28;20205;-59
2023/04/29 08:28:48;;;;;;;14.77;13.13;;;12.10;99.90;;;;;;5113820;28;20181;-59
2023/04/29 08:31:20;;;;;;;13.95;12.52;;;12.00;99.90;;;;;;5113795;28;20654;-58
2023/04/29 08:33:47;;;;;;;16.70;14.45;;;11.90;99.90;;;;;;5113502;28;20181;-58
2023/04/29 08:36:13;;;;;;;15.88;14.10;;;11.90;99.90;;;;;;5113807;28;20184;-59
2023/04/29 08:38:38;;;;;;;17.45;13.30;;;11.90;99.90;;;;;;5113655;28;20173;-58
2023/04/29 08:41:11;;;;;;;16.77;13.98;;;11.90;99.90;;;;;;5113463;28;20588;-58
2023/04/29 08:43:36;;;;;;;15.05;13.45;;;12.00;99.90;;;;;;5113668;28;20265;-59
2023/04/29 08:46:03;;;;;;;17.33;14.80;;;12.10;99.90;;;;;;5113318;28;20270;-59
2023/04/29 08:48:30;;;;;;;15.80;14.15;;;12.20;99.90;;;;;;5113177;28;20213;-59
2023/04/29 08:50:57;;;;;;;16.27;14.48;;;12.20;99.90;;;;;;5113702;28;20226;-59
2023/04/29 08:53:23;;;;;;;14.90;13.15;;;12.20;99.90;;;;;;5113216;28;20268;-59
2023/04/29 08:55:49;;;;;;;14.55;13.02;;;12.30;99.90;;;;;;5113634;28;20524;-59
2023/04/29 08:58:15;;;;;;;15.98;13.88;;;12.30;99.90;;;;;;5113304;28;20180;-58
2023/04/29 09:00:42;;;;;;;17.83;12.95;;;12.30;99.90;;;;;;5113231;28;20161;-59
2023/04/29 09:03:23;;;;;;;14.23;12.30;;;12.30;99.90;;;;;;5094952;28;20166;-58
2023/04/29 09:05:53;;;;;;;14.60;13.10;;;12.30;99.90;;;;;;5113872;28;20597;-58
2023/04/29 09:08:22;;;;;;;15.70;12.93;;;12.10;99.90;;;;;;5113858;28;20223;-58
2023/04/29 09:10:49;;;;;;;13.55;11.50;;;12.10;99.90;;;;;;5095965;28;20170;-58
2023/04/29 09:13:26;;;;;;;13.98;12.45;;;12.10;99.90;;;;;;5113622;28;20200;-59
2023/04/29 09:15:52;;;;;;;14.85;12.48;;;12.20;99.90;;;;;;5113556;28;20546;-58
2023/04/29 09:18:42;;;;;;;14.45;12.70;;;12.20;99.90;;;;;;5113769;28;20173;-59
2023/04/29 09:21:17;;;;;;;13.73;12.30;;;12.30;99.90;;;;;;5113821;28;20248;-58
2023/04/29 09:23:44;;;;;;;14.23;11.95;;;12.40;99.90;;;;;;5113552;28;20251;-59
2023/04/29 09:26:10;;;;;;;13.40;11.63;;;12.50;99.90;;;;;;5113289;28;20242;-59
2023/04/29 09:28:35;;;;;;;13.75;11.82;;;12.80;99.90;;;;;;5113608;28;20177;-58
2023/04/29 09:31:06;;;;;;;12.43;11.13;;;12.90;99.90;;;;;;5116182;28;20212;-59
2023/04/29 09:33:50;;;;;;;12.45;11.07;;;12.90;99.90;;;;;;5117759;28;20181;-59
2023/04/29 09:36:37;;;;;;;12.90;11.30;;;13.00;99.90;;;;;;5117754;28;20193;-60
2023/04/29 09:39:05;;;;;;;14.10;12.25;;;13.10;99.90;;;;;;5117849;28;20180;-60
2023/04/29 09:41:31;;;;;;;22.85;20.52;;;13.30;99.90;;;;;;5099467;28;20645;-59
2023/04/29 09:44:07;;;;;;;14.95;13.35;;;13.40;99.90;;;;;;5117612;28;20177;-59
2023/04/29 09:46:35;;;;;;;15.52;13.07;;;13.50;99.90;;;;;;5117652;28;20200;-58
2023/04/29 09:49:22;;;;;;;13.48;11.55;;;13.50;99.90;;;;;;5117168;28;20224;-59
2023/04/29 09:52:02;;;;;;;12.43;11.05;;;13.30;99.90;;;;;;5117580;28;20173;-59
2023/04/29 09:54:30;;;;;;;14.18;11.52;;;13.30;99.90;;;;;;5117452;28;20264;-59
2023/04/29 09:56:58;;;;;;;14.10;12.68;;;13.40;99.90;;;;;;5117329;28;20189;-58
2023/04/29 09:59:24;;;;;;;13.73;11.95;;;13.40;99.90;;;;;;5117241;28;20193;-59
2023/04/29 10:01:56;;;;;;;11.65;10.55;;;13.50;99.90;;;;;;5117515;28;20524;-59
2023/04/29 10:04:26;;;;;;;13.65;12.00;;;13.50;99.90;;;;;;5117232;28;20201;-59
2023/04/29 10:06:54;;;;;;;11.25;10.23;;;13.60;99.90;;;;;;5117069;28;20219;-58
2023/04/29 10:09:21;;;;;;;12.73;11.40;;;13.60;99.90;;;;;;5117136;28;20242;-59
2023/04/29 10:11:50;;;;;;;11.90;10.70;;;13.50;99.90;;;;;;5116960;28;20170;-59
2023/04/29 10:14:21;;;;;;;11.93;10.68;;;13.40;99.90;;;;;;5116959;28;20252;-58
2023/04/29 10:17:20;;;;;;;11.70;10.48;;;13.40;99.90;;;;;;5117204;28;20643;-58
2023/04/29 10:20:01;;;;;;;11.52;10.43;;;13.40;99.90;;;;;;5083451;28;20192;-58
2023/04/29 10:22:33;;;;;;;12.32;10.30;;;13.30;99.90;;;;;;5117046;28;20169;-58
2023/04/29 10:25:01;;;;;;;12.60;11.30;;;13.20;99.90;;;;;;5116664;28;20184;-59
2023/04/29 10:27:27;;;;;;;12.93;11.48;;;13.10;99.90;;;;;;5116771;28;20559;-58
2023/04/29 10:29:55;;;;;;;12.90;11.60;;;13.20;99.90;;;;;;5116626;28;20177;-59
2023/04/29 10:32:21;;;;;;;15.02;11.98;;;13.20;99.90;;;;;;5116714;28;20169;-58
2023/04/29 10:34:48;;;;;;;12.95;11.52;;;13.20;99.90;;;;;;5116513;28;20604;-58
2023/04/29 10:37:15;;;;;;;12.23;11.13;;;13.20;99.90;;;;;;5116612;28;20180;-59
2023/04/29 10:39:51;;;;;;;12.48;11.18;;;13.20;99.90;;;;;;5116576;28;20177;-59
2023/04/29 10:42:51;;;;;;;13.38;11.30;;;13.30;99.90;;;;;;5116167;28;20173;-58
2023/04/29 10:45:36;;;;;;;13.68;12.32;;;13.30;99.90;;;;;;5116209;28;20214;-59
2023/04/29 10:48:04;;;;;;;12.52;11.38;;;13.30;99.90;;;;;;5116474;28;20177;-59
2023/04/29 10:50:44;;;;;;;13.75;11.18;;;13.30;99.90;;;;;;5116334;28;20228;-59
2023/04/29 10:53:09;;;;;;;12.77;11.07;;;13.40;99.90;;;;;;5116291;28;20165;-59
2023/04/29 10:55:36;;;;;;;12.45;11.15;;;13.60;99.90;;;;;;5097882;28;20177;-58
2023/04/29 10:58:03;;;;;;;13.90;12.15;;;13.70;99.90;;;;;;5116101;28;20234;-58
2023/04/29 11:00:32;;;;;;;12.95;11.63;;;13.80;99.90;;;;;;5116156;28;20169;-59
2023/04/29 11:03:04;;;;;;;13.63;11.98;;;13.90;99.90;;;;;;5116116;28;20720;-59
2023/04/29 11:05:31;;;;;;;14.65;12.32;;;14.10;99.90;;;;;;5116072;28;20261;-59
2023/04/29 11:08:12;;;;;;;13.00;11.50;;;14.30;99.90;;;;;;5115672;28;20173;-58
2023/04/29 11:10:42;;;;;;;13.30;11.90;;;14.50;99.90;;;;;;5116074;28;20189;-58
2023/04/29 11:13:25;;;;;;;12.77;11.35;;;14.70;99.90;;;;;;5115796;28;20174;-59
2023/04/29 11:16:07;;;;;;;13.18;11.90;;;14.80;99.90;;;;;;5115868;28;20197;-59
2023/04/29 11:18:34;;;;;;;13.68;11.90;;;14.80;99.90;;;;;;5115693;28;20175;-59
2023/04/29 11:21:05;;;;;;;13.13;11.82;;;15.00;99.90;;;;;;5115540;28;20501;-59
2023/04/29 11:23:35;;;;;;;12.38;11.18;;;15.00;99.90;;;;;;5115470;28;20169;-58
2023/04/29 11:26:02;;;;;;;10.77;9.65;;;14.90;99.90;;;;;;5115507;28;20208;-58
2023/04/29 11:28:30;;;;;;;12.77;11.48;;;14.90;99.90;;;;;;5115566;28;20215;-58
2023/04/29 11:30:57;;;;;;;11.90;10.75;;;14.80;99.90;;;;;;5115419;28;20167;-58
2023/04/29 11:33:26;;;;;;;12.13;10.93;;;15.00;99.90;;;;;;5115267;28;20170;-59
2023/04/29 11:35:53;;;;;;;12.95;11.43;;;15.20;99.90;;;;;;5115504;28;20177;-59
2023/04/29 11:38:24;;;;;;;13.30;11.23;;;15.30;99.90;;;;;;5115375;28;20273;-58
2023/04/29 11:40:50;;;;;;;12.85;11.55;;;15.20;99.90;;;;;;5115348;28;20306;-59
2023/04/29 11:43:17;;;;;;;11.98;10.50;;;15.00;99.90;;;;;;5115162;28;20173;-58
2023/04/29 11:45:46;;;;;;;12.57;10.90;;;15.00;99.90;;;;;;5115030;28;20204;-59
2023/04/29 11:48:18;;;;;;;12.25;10.95;;;14.90;99.90;;;;;;5115097;28;20226;-57
2023/04/29 11:50:50;;;;;;;12.35;10.52;;;15.10;99.90;;;;;;5115435;28;20210;-59
2023/04/29 11:53:18;;;;;;;12.07;10.82;;;15.20;99.90;;;;;;5114345;28;20169;-59
2023/04/29 11:55:44;;;;;;;11.05;9.93;;;15.40;99.90;;;;;;5114964;28;20169;-59
2023/04/29 11:58:10;;;;;;;10.40;9.18;;;15.40;99.90;;;;;;5114752;28;20177;-59
2023/04/29 12:00:37;;;;;;;9.98;8.68;;;15.30;99.90;;;;;;5115038;28;20180;-59
2023/04/29 12:03:16;;;;;;;10.75;9.25;;;15.20;99.90;;;;;;5114849;28;20173;-59
2023/04/29 12:05:50;;;;;;;11.13;9.77;;;15.00;99.90;;;;;;5115316;28;20219;-59
2023/04/29 12:08:34;;;;;;;9.52;8.65;;;15.00;99.90;;;;;;5114803;28;20222;-59
2023/04/29 12:11:00;;;;;;;9.75;8.75;;;14.80;99.90;;;;;;5114393;28;20737;-58
2023/04/29 12:13:30;;;;;;;10.02;8.45;;;15.00;99.90;;;;;;5114736;28;20177;-59
2023/04/29 12:15:57;;;;;;;9.73;8.73;;;15.00;99.90;;;;;;5114834;28;20173;-59
2023/04/29 12:18:23;;;;;;;9.88;8.88;;;15.20;99.90;;;;;;5114595;28;20165;-59
2023/04/29 12:20:52;;;;;;;9.82;8.82;;;15.30;99.90;;;;;;5114648;28;20629;-59
2023/04/29 12:23:23;;;;;;;9.77;8.77;;;15.50;99.90;;;;;;5114296;28;20170;-58
2023/04/29 12:25:51;;;;;;;8.65;7.63;;;15.50;99.90;;;;;;5114789;28;20208;-58
2023/04/29 12:28:18;;;;;;;8.55;7.75;;;15.60;99.90;;;;;;5114492;28;20169;-59
2023/04/29 12:30:45;;;;;;;9.80;8.80;;;15.60;99.90;;;;;;5114586;28;20176;-59
2023/04/29 12:33:18;;;;;;;11.60;10.05;;;15.70;99.90;;;;;;5114200;28;20229;-59